Time;durP1;ratioP1;P1;durP2;ratioP2;P2;SDS_P1;SDS_P2;PMS_P1;PMS_P2;Temp;Humidity;BMP_temperature;BMP_pressure;BME280_temperature;BME280_humidity;BME280_pressure;Samples;Min_cycle;Max_cycle;Signal;HPM_P1;HPM_P2
2022/04/24 00:02:17;;;;;;;18.45;10.00;;;7.70;76.90;;;;;;4953923;29;20058;-71
2022/04/24 00:04:47;;;;;;;22.63;9.88;;;7.60;76.90;;;;;;4953107;29;20058;-71
2022/04/24 00:07:15;;;;;;;16.77;10.35;;;7.60;77.20;;;;;;4953864;29;20043;-71
2022/04/24 00:09:43;;;;;;;20.25;10.68;;;7.60;77.30;;;;;;4952482;29;20059;-71
2022/04/24 00:12:18;;;;;;;21.15;10.40;;;7.50;77.40;;;;;;4934864;29;20047;-71
2022/04/24 00:14:47;;;;;;;19.30;10.75;;;7.40;77.40;;;;;;4933331;29;20070;-71
2022/04/24 00:17:16;;;;;;;24.02;10.35;;;7.40;77.50;;;;;;4950015;29;20044;-73
2022/04/24 00:19:44;;;;;;;21.15;10.45;;;7.40;77.90;;;;;;4927707;29;20491;-70
2022/04/24 00:22:12;;;;;;;20.80;10.40;;;7.40;77.80;;;;;;4941520;29;20051;-70
2022/04/24 00:24:39;;;;;;;22.48;10.02;;;7.40;77.70;;;;;;4939136;29;20497;-70
2022/04/24 00:27:08;;;;;;;21.48;10.48;;;7.30;77.70;;;;;;4946241;29;20039;-71
2022/04/24 00:29:37;;;;;;;24.20;11.10;;;7.30;77.80;;;;;;4932129;29;20637;-70
2022/04/24 00:32:05;;;;;;;23.92;10.35;;;7.30;78.00;;;;;;4946784;29;20040;-71
2022/04/24 00:34:33;;;;;;;24.63;10.55;;;7.20;78.50;;;;;;4933499;29;20043;-71
2022/04/24 00:37:01;;;;;;;19.85;11.02;;;7.30;78.30;;;;;;4949937;29;20055;-71
2022/04/24 00:39:28;;;;;;;27.45;10.73;;;7.30;78.60;;;;;;4932731;29;20047;-72
2022/04/24 00:41:56;;;;;;;29.13;11.32;;;7.30;78.60;;;;;;4949562;29;20050;-71
2022/04/24 00:44:24;;;;;;;25.50;10.35;;;7.30;78.80;;;;;;4948927;29;20039;-71
2022/04/24 00:46:58;;;;;;;26.17;10.85;;;7.30;79.10;;;;;;4947223;29;20043;-71
2022/04/24 00:49:26;;;;;;;25.60;10.88;;;7.30;79.00;;;;;;4949571;29;20054;-71
2022/04/24 00:51:55;;;;;;;21.92;9.95;;;7.20;79.10;;;;;;4932670;29;20051;-71
2022/04/24 00:54:23;;;;;;;26.95;11.32;;;7.20;79.30;;;;;;4948210;29;20047;-71
2022/04/24 00:56:51;;;;;;;25.27;11.00;;;7.20;79.40;;;;;;4929612;29;20055;-71
2022/04/24 00:59:19;;;;;;;25.05;11.23;;;7.20;79.50;;;;;;4931394;29;20485;-71
2022/04/24 01:01:47;;;;;;;25.30;10.80;;;7.20;80.10;;;;;;4948513;29;20369;-70
2022/04/24 01:04:16;;;;;;;26.00;11.15;;;7.20;80.10;;;;;;4934089;29;20530;-70
2022/04/24 01:06:44;;;;;;;29.60;11.07;;;7.20;80.10;;;;;;4947662;28;20520;-70
2022/04/24 01:09:19;;;;;;;26.58;11.07;;;7.20;80.00;;;;;;4951829;29;20051;-70
2022/04/24 01:11:55;;;;;;;23.83;11.30;;;7.20;80.20;;;;;;4951215;29;20046;-70
2022/04/24 01:14:25;;;;;;;26.13;10.55;;;7.20;80.20;;;;;;4951304;29;20484;-70
2022/04/24 01:16:53;;;;;;;26.65;11.15;;;7.20;80.60;;;;;;4935179;29;20401;-70
2022/04/24 01:19:21;;;;;;;26.20;10.90;;;7.20;80.60;;;;;;4930206;29;20055;-70
2022/04/24 01:21:49;;;;;;;25.08;11.90;;;7.20;80.60;;;;;;4935158;29;20508;-71
2022/04/24 01:24:19;;;;;;;29.60;11.15;;;7.20;80.80;;;;;;4932443;29;20481;-69
2022/04/24 01:26:47;;;;;;;26.20;11.65;;;7.20;80.80;;;;;;4950028;29;20055;-70
2022/04/24 01:29:16;;;;;;;28.20;11.40;;;7.20;80.80;;;;;;4952168;29;20051;-70
2022/04/24 01:31:45;;;;;;;27.13;10.95;;;7.20;80.80;;;;;;4951593;28;20051;-70
2022/04/24 01:34:13;;;;;;;24.77;11.20;;;7.10;80.80;;;;;;4952086;29;20070;-71
2022/04/24 01:36:41;;;;;;;28.63;10.93;;;7.10;81.00;;;;;;4931578;29;20501;-70
2022/04/24 01:39:09;;;;;;;24.10;10.85;;;7.10;81.20;;;;;;4952732;29;20062;-70
2022/04/24 01:41:36;;;;;;;25.58;10.38;;;7.10;81.20;;;;;;4950356;29;20074;-70
2022/04/24 01:44:04;;;;;;;22.58;10.45;;;7.10;81.50;;;;;;4934537;29;20276;-70
2022/04/24 01:46:32;;;;;;;27.10;10.48;;;7.10;81.40;;;;;;4935225;29;20047;-70
2022/04/24 01:49:00;;;;;;;27.10;9.75;;;7.10;81.30;;;;;;4949133;29;20047;-70
2022/04/24 01:51:27;;;;;;;24.10;10.07;;;7.10;81.30;;;;;;4950736;29;20482;-70
2022/04/24 01:53:55;;;;;;;25.85;9.73;;;7.00;81.70;;;;;;4927030;29;20051;-70
2022/04/24 01:56:22;;;;;;;25.33;9.63;;;7.10;81.80;;;;;;4934344;29;20059;-70
2022/04/24 01:58:50;;;;;;;26.40;8.90;;;7.10;81.80;;;;;;4934446;29;20070;-70
2022/04/24 02:01:17;;;;;;;26.85;9.73;;;7.20;81.60;;;;;;4948292;29;20047;-70
2022/04/24 02:03:45;;;;;;;28.15;9.38;;;7.10;81.50;;;;;;4952523;29;20043;-70
2022/04/24 02:06:13;;;;;;;31.38;10.00;;;7.10;81.50;;;;;;4948994;29;20489;-70
2022/04/24 02:08:41;;;;;;;26.02;9.50;;;7.10;81.70;;;;;;4933995;29;20062;-70
2022/04/24 02:11:08;;;;;;;33.13;9.15;;;7.10;81.70;;;;;;4950594;29;20043;-70
2022/04/24 02:13:36;;;;;;;27.45;10.10;;;7.10;81.60;;;;;;4919039;29;20055;-69
2022/04/24 02:16:04;;;;;;;28.27;9.75;;;7.10;81.70;;;;;;4931498;29;20052;-70
2022/04/24 02:18:33;;;;;;;20.83;8.68;;;7.10;81.60;;;;;;4932045;29;20055;-70
2022/04/24 02:21:00;;;;;;;26.90;8.93;;;7.00;81.60;;;;;;4934715;29;20043;-70
2022/04/24 02:23:29;;;;;;;30.00;9.25;;;7.00;81.60;;;;;;4949233;29;20043;-69
2022/04/24 02:25:56;;;;;;;21.45;8.60;;;7.00;81.60;;;;;;4949471;29;20052;-70
2022/04/24 02:28:24;;;;;;;26.55;9.00;;;7.00;81.70;;;;;;4951866;29;20070;-70
2022/04/24 02:30:51;;;;;;;22.45;8.93;;;6.90;81.70;;;;;;4950630;29;20055;-70
2022/04/24 02:33:19;;;;;;;23.55;9.00;;;6.90;81.60;;;;;;4950219;29;20047;-70
2022/04/24 02:35:46;;;;;;;29.60;9.73;;;7.00;81.70;;;;;;4947680;29;20043;-70
2022/04/24 02:38:14;;;;;;;23.77;10.05;;;7.00;81.60;;;;;;4952114;29;20528;-71
2022/04/24 02:40:42;;;;;;;23.70;9.13;;;6.90;81.70;;;;;;4950590;29;20382;-71
2022/04/24 02:43:09;;;;;;;26.17;9.27;;;6.90;81.70;;;;;;4955146;29;20047;-71
2022/04/24 02:45:37;;;;;;;23.33;8.35;;;7.00;81.80;;;;;;4950621;29;20051;-71
2022/04/24 02:48:05;;;;;;;24.88;9.85;;;7.00;81.80;;;;;;4949993;29;20420;-71
2022/04/24 02:50:32;;;;;;;24.13;8.80;;;7.00;81.90;;;;;;4950414;29;20262;-71
2022/04/24 02:53:00;;;;;;;30.17;9.45;;;7.00;81.90;;;;;;4949994;29;20043;-71
2022/04/24 02:55:27;;;;;;;25.23;9.05;;;7.00;81.80;;;;;;4948586;29;20047;-71
2022/04/24 02:57:55;;;;;;;24.70;8.90;;;7.00;81.80;;;;;;4949070;29;20047;-71
2022/04/24 03:00:24;;;;;;;23.90;8.85;;;7.00;81.90;;;;;;4950173;29;20077;-71
2022/04/24 03:02:53;;;;;;;19.42;8.02;;;7.00;82.20;;;;;;4931133;29;20054;-72
2022/04/24 03:05:23;;;;;;;26.88;9.43;;;7.10;82.10;;;;;;4951386;29;20528;-71
2022/04/24 03:07:51;;;;;;;29.10;8.02;;;7.10;82.10;;;;;;4949927;29;20048;-71
2022/04/24 03:10:19;;;;;;;23.92;8.65;;;7.10;81.90;;;;;;4950113;29;20047;-71
2022/04/24 03:12:47;;;;;;;25.65;8.95;;;7.10;81.90;;;;;;4950027;29;20370;-71
2022/04/24 03:15:15;;;;;;;25.83;8.98;;;7.10;82.10;;;;;;4951532;29;20433;-71
2022/04/24 03:17:44;;;;;;;25.27;8.93;;;7.20;81.90;;;;;;4933726;29;20039;-71
2022/04/24 03:20:12;;;;;;;21.05;8.00;;;7.10;81.90;;;;;;4950045;29;20043;-71
2022/04/24 03:22:40;;;;;;;24.70;8.07;;;7.10;81.90;;;;;;4949557;29;20058;-70
2022/04/24 03:25:10;;;;;;;21.00;8.13;;;7.10;82.00;;;;;;4949473;29;20043;-71
2022/04/24 03:27:38;;;;;;;23.67;8.90;;;7.10;81.90;;;;;;4950109;29;20122;-71
2022/04/24 03:30:09;;;;;;;30.48;9.23;;;7.00;81.90;;;;;;4947519;28;20055;-70
2022/04/24 03:32:37;;;;;;;26.70;8.23;;;7.00;82.00;;;;;;4950431;29;20046;-70
2022/04/24 03:35:06;;;;;;;22.20;8.10;;;7.10;82.00;;;;;;4949681;29;20421;-70
2022/04/24 03:37:35;;;;;;;20.25;8.10;;;7.00;82.00;;;;;;4929595;29;20043;-70
2022/04/24 03:40:03;;;;;;;33.63;9.13;;;7.00;81.80;;;;;;4950160;29;20043;-71
2022/04/24 03:42:31;;;;;;;26.77;9.00;;;6.90;81.90;;;;;;4950681;29;20139;-70
2022/04/24 03:44:59;;;;;;;29.15;8.35;;;6.80;82.00;;;;;;4946140;29;20054;-71
2022/04/24 03:47:27;;;;;;;21.52;8.07;;;6.80;82.10;;;;;;4949584;29;20520;-71
2022/04/24 03:49:54;;;;;;;23.80;8.10;;;6.70;82.20;;;;;;4910992;29;20067;-71
2022/04/24 03:52:22;;;;;;;23.80;7.60;;;6.70;82.40;;;;;;4928157;29;20486;-71
2022/04/24 03:54:50;;;;;;;20.85;8.30;;;6.70;82.40;;;;;;4933859;28;20043;-71
2022/04/24 03:57:17;;;;;;;31.98;8.18;;;6.70;82.40;;;;;;4948027;29;20062;-71
2022/04/24 03:59:45;;;;;;;18.98;6.70;;;6.70;82.40;;;;;;4949779;29;20039;-70
2022/04/24 04:02:13;;;;;;;22.83;8.32;;;6.70;82.50;;;;;;4949236;29;20047;-70
2022/04/24 04:04:40;;;;;;;26.48;7.93;;;6.70;82.40;;;;;;4947541;29;20043;-70
2022/04/24 04:07:09;;;;;;;19.38;6.88;;;6.70;82.60;;;;;;4948921;29;20040;-70
2022/04/24 04:09:36;;;;;;;20.73;7.00;;;6.70;82.60;;;;;;4929673;29;20043;-70
2022/04/24 04:12:06;;;;;;;27.75;7.75;;;6.70;82.30;;;;;;4948798;29;20396;-70
2022/04/24 04:14:34;;;;;;;27.58;7.25;;;6.70;82.40;;;;;;4947446;29;20058;-70
2022/04/24 04:17:01;;;;;;;25.83;6.75;;;6.60;82.50;;;;;;4949126;29;20043;-70
2022/04/24 04:19:32;;;;;;;27.45;7.00;;;6.60;82.50;;;;;;4950300;29;20385;-70
2022/04/24 04:22:00;;;;;;;24.70;7.45;;;6.60;82.50;;;;;;4949765;29;20054;-71
2022/04/24 04:24:27;;;;;;;24.73;6.78;;;6.60;82.50;;;;;;4948428;29;20066;-71
2022/04/24 04:26:55;;;;;;;20.23;6.38;;;6.50;82.60;;;;;;4945462;29;20532;-70
2022/04/24 04:29:22;;;;;;;20.95;6.10;;;6.50;82.60;;;;;;4932619;29;20555;-71
2022/04/24 04:31:50;;;;;;;21.50;6.30;;;6.50;82.60;;;;;;4949948;29;20497;-70
2022/04/24 04:34:18;;;;;;;27.70;6.72;;;6.50;82.60;;;;;;4912399;29;20046;-70
2022/04/24 04:36:46;;;;;;;28.63;6.78;;;6.60;82.60;;;;;;4955349;28;20412;-71
2022/04/24 04:39:14;;;;;;;20.45;6.22;;;6.60;82.60;;;;;;4949282;29;20048;-70
2022/04/24 04:41:41;;;;;;;19.58;6.43;;;6.60;82.50;;;;;;4948759;28;20508;-70
2022/04/24 04:44:09;;;;;;;24.10;6.88;;;6.60;82.40;;;;;;4920355;29;20047;-71
2022/04/24 04:46:36;;;;;;;19.08;6.32;;;6.60;82.30;;;;;;4935985;29;20051;-71
2022/04/24 04:49:05;;;;;;;31.75;6.72;;;6.60;82.30;;;;;;4952957;29;20047;-71
2022/04/24 04:51:33;;;;;;;20.63;6.85;;;6.60;82.20;;;;;;4952892;29;20051;-71
2022/04/24 04:54:00;;;;;;;24.98;6.82;;;6.60;82.10;;;;;;4932912;29;20050;-71
2022/04/24 04:56:28;;;;;;;18.95;6.47;;;6.50;82.20;;;;;;4952976;29;20404;-71
2022/04/24 04:58:56;;;;;;;19.65;5.85;;;6.50;82.20;;;;;;4950778;29;20043;-72
2022/04/24 05:01:23;;;;;;;19.58;6.15;;;6.50;82.20;;;;;;4934612;29;20046;-71
2022/04/24 05:03:51;;;;;;;24.65;6.50;;;6.50;82.20;;;;;;4935985;29;20051;-71
2022/04/24 05:06:21;;;;;;;28.73;6.57;;;6.50;82.10;;;;;;4950408;29;20047;-71
2022/04/24 05:08:49;;;;;;;18.83;6.72;;;6.40;82.30;;;;;;4951742;29;20055;-71
2022/04/24 05:11:16;;;;;;;18.13;6.50;;;6.50;82.20;;;;;;4952683;29;20303;-71
2022/04/24 05:13:44;;;;;;;24.23;6.70;;;6.50;82.20;;;;;;4951578;29;20059;-71
2022/04/24 05:16:12;;;;;;;22.05;6.65;;;6.50;82.10;;;;;;4952456;29;20044;-71
2022/04/24 05:18:39;;;;;;;24.65;6.63;;;6.50;82.00;;;;;;4951685;29;20050;-71
2022/04/24 05:21:07;;;;;;;23.02;6.20;;;6.50;82.00;;;;;;4936384;29;20484;-71
2022/04/24 05:23:34;;;;;;;17.67;5.72;;;6.50;81.80;;;;;;4951064;29;20047;-71
2022/04/24 05:26:02;;;;;;;18.70;6.47;;;6.50;81.70;;;;;;4951421;29;20058;-71
2022/04/24 05:28:30;;;;;;;25.27;7.05;;;6.60;81.60;;;;;;4949429;29;20054;-71
2022/04/24 05:30:57;;;;;;;14.82;6.28;;;6.50;81.50;;;;;;4936911;29;20050;-71
2022/04/24 05:33:25;;;;;;;18.70;6.25;;;6.60;81.40;;;;;;4952100;29;20054;-71
2022/04/24 05:35:52;;;;;;;17.02;6.03;;;6.60;81.30;;;;;;4947074;29;20043;-72
2022/04/24 05:38:20;;;;;;;19.77;6.30;;;6.60;81.20;;;;;;4929347;29;20055;-71
2022/04/24 05:40:48;;;;;;;18.95;6.00;;;6.60;81.10;;;;;;4925651;29;20067;-71
2022/04/24 05:43:15;;;;;;;25.65;6.18;;;6.60;81.10;;;;;;4950417;29;20055;-71
2022/04/24 05:45:43;;;;;;;19.65;5.65;;;6.60;81.00;;;;;;4932675;29;20051;-71
2022/04/24 05:48:11;;;;;;;18.88;5.97;;;6.70;81.00;;;;;;4951988;29;20058;-71
2022/04/24 05:50:38;;;;;;;23.02;5.93;;;6.70;80.90;;;;;;4951291;29;20054;-71
2022/04/24 05:53:06;;;;;;;20.95;6.00;;;6.70;80.90;;;;;;4950628;28;20039;-70
2022/04/24 05:55:34;;;;;;;14.25;5.60;;;6.80;80.80;;;;;;4932991;29;20073;-71
2022/04/24 05:58:01;;;;;;;13.98;5.38;;;6.80;80.80;;;;;;4951970;29;20047;-71
2022/04/24 06:00:29;;;;;;;21.13;6.53;;;6.80;80.70;;;;;;4951828;29;20050;-71
2022/04/24 06:02:56;;;;;;;17.13;5.95;;;6.80;80.60;;;;;;4955398;29;20051;-71
2022/04/24 06:05:24;;;;;;;19.92;5.82;;;6.90;80.60;;;;;;4939149;29;20051;-71
2022/04/24 06:07:52;;;;;;;22.30;6.35;;;6.90;80.50;;;;;;4956386;29;20043;-70
2022/04/24 06:10:19;;;;;;;17.23;5.38;;;7.00;80.50;;;;;;4938638;29;20059;-70
2022/04/24 06:12:52;;;;;;;20.50;6.15;;;7.10;80.50;;;;;;4955564;29;20043;-70
2022/04/24 06:15:21;;;;;;;19.17;5.70;;;7.20;80.40;;;;;;4938533;29;20051;-71
2022/04/24 06:17:51;;;;;;;19.83;6.30;;;7.20;80.30;;;;;;4955752;29;20149;-71
2022/04/24 06:20:20;;;;;;;18.63;5.70;;;7.30;80.20;;;;;;4922873;29;20299;-70
2022/04/24 06:22:51;;;;;;;17.73;5.88;;;7.40;80.10;;;;;;4922668;29;20059;-70
2022/04/24 06:25:23;;;;;;;15.88;5.97;;;7.50;79.90;;;;;;4938746;29;20481;-70
2022/04/24 06:27:52;;;;;;;12.52;5.00;;;7.60;79.70;;;;;;4955592;29;20054;-70
2022/04/24 06:30:22;;;;;;;19.00;5.28;;;7.70;79.40;;;;;;4955612;29;20464;-71
2022/04/24 06:32:51;;;;;;;14.85;5.03;;;7.80;78.90;;;;;;4948399;29;20433;-70
2022/04/24 06:35:19;;;;;;;18.35;5.60;;;7.90;78.60;;;;;;4955548;29;20050;-70
2022/04/24 06:37:49;;;;;;;18.83;5.55;;;7.90;78.50;;;;;;4955407;29;20047;-71
2022/04/24 06:40:19;;;;;;;12.88;5.20;;;8.00;78.20;;;;;;4955707;29;20043;-71
2022/04/24 06:42:58;;;;;;;17.95;4.95;;;8.10;78.10;;;;;;4954221;29;20070;-70
2022/04/24 06:45:29;;;;;;;18.27;5.35;;;8.20;77.90;;;;;;4938327;29;20058;-70
2022/04/24 06:47:58;;;;;;;20.52;5.95;;;8.20;77.70;;;;;;4955437;29;20058;-71
2022/04/24 06:50:28;;;;;;;15.27;5.55;;;8.30;77.50;;;;;;4937460;29;20417;-71
2022/04/24 06:53:13;;;;;;;16.63;5.82;;;8.30;77.40;;;;;;4951685;29;20062;-71
2022/04/24 06:55:42;;;;;;;19.42;5.25;;;8.40;77.20;;;;;;4954562;29;20150;-71
2022/04/24 06:58:12;;;;;;;15.23;4.80;;;8.40;77.00;;;;;;4954799;29;20055;-71
2022/04/24 07:00:42;;;;;;;20.52;5.82;;;8.50;76.80;;;;;;4954552;29;20512;-71
2022/04/24 07:03:30;;;;;;;19.27;5.50;;;8.50;76.50;;;;;;4954781;29;20042;-71
2022/04/24 07:05:58;;;;;;;16.10;5.85;;;8.60;76.40;;;;;;4954057;28;20055;-71
2022/04/24 07:08:25;;;;;;;11.77;5.32;;;8.70;76.30;;;;;;4954897;29;20050;-71
2022/04/24 07:10:53;;;;;;;17.38;5.40;;;8.70;76.20;;;;;;4954540;29;20051;-71
2022/04/24 07:13:22;;;;;;;19.30;5.35;;;8.80;76.10;;;;;;4954685;29;20048;-71
2022/04/24 07:15:50;;;;;;;18.80;5.75;;;8.80;75.90;;;;;;4954853;29;20043;-71
2022/04/24 07:18:18;;;;;;;12.35;5.05;;;8.80;75.80;;;;;;4954332;29;20047;-70
2022/04/24 07:20:46;;;;;;;16.23;5.05;;;8.90;75.70;;;;;;4954197;29;20050;-70
2022/04/24 07:23:15;;;;;;;15.38;5.32;;;9.00;75.50;;;;;;4954717;29;20404;-70
2022/04/24 07:25:46;;;;;;;15.65;4.60;;;9.00;75.40;;;;;;4937707;29;20370;-71
2022/04/24 07:28:16;;;;;;;13.93;4.70;;;9.10;75.10;;;;;;4954438;29;20051;-71
2022/04/24 07:30:43;;;;;;;11.43;4.93;;;9.20;74.80;;;;;;4954085;29;20046;-71
2022/04/24 07:33:13;;;;;;;11.80;5.13;;;9.30;74.70;;;;;;4951526;29;22003;-72
2022/04/24 07:35:42;;;;;;;11.57;4.57;;;9.30;74.50;;;;;;4944345;29;20424;-72
2022/04/24 07:38:10;;;;;;;17.65;5.05;;;9.40;74.40;;;;;;4943873;29;20059;-71
2022/04/24 07:40:39;;;;;;;16.73;5.25;;;9.50;74.10;;;;;;4946532;29;20051;-71
2022/04/24 07:43:11;;;;;;;11.07;5.47;;;9.50;73.90;;;;;;4923848;29;20048;-71
2022/04/24 07:45:45;;;;;;;15.60;5.05;;;9.60;73.60;;;;;;4926968;29;20051;-71
2022/04/24 07:48:13;;;;;;;15.57;5.00;;;9.60;73.50;;;;;;4946688;29;20055;-71
2022/04/24 07:50:44;;;;;;;9.90;4.38;;;9.70;73.40;;;;;;4939582;29;20054;-71
2022/04/24 07:53:12;;;;;;;14.45;4.80;;;9.70;73.20;;;;;;4935228;29;20066;-72
2022/04/24 07:55:41;;;;;;;11.80;4.55;;;9.80;73.10;;;;;;4917987;29;20048;-72
2022/04/24 07:58:10;;;;;;;14.75;5.03;;;9.80;73.00;;;;;;4935979;29;20496;-71
2022/04/24 08:00:39;;;;;;;11.68;4.80;;;9.90;72.70;;;;;;4920878;29;20412;-71
2022/04/24 08:03:11;;;;;;;12.95;4.80;;;9.90;72.70;;;;;;4953701;29;20054;-71
2022/04/24 08:05:40;;;;;;;12.10;4.55;;;10.00;72.30;;;;;;4953994;29;20059;-71
2022/04/24 08:08:14;;;;;;;18.13;5.72;;;10.10;72.20;;;;;;4954013;29;20051;-71
2022/04/24 08:10:47;;;;;;;11.75;5.18;;;10.20;72.10;;;;;;4945363;29;20421;-71
2022/04/24 08:13:17;;;;;;;17.30;5.00;;;10.30;71.90;;;;;;4951674;29;20055;-71
2022/04/24 08:15:46;;;;;;;13.15;5.05;;;10.40;71.70;;;;;;4919244;29;20051;-71
2022/04/24 08:18:14;;;;;;;17.08;5.13;;;10.60;71.10;;;;;;4938792;29;20047;-71
2022/04/24 08:20:42;;;;;;;11.35;4.43;;;10.70;70.80;;;;;;4947904;29;20043;-71
2022/04/24 08:23:11;;;;;;;11.77;4.75;;;10.70;70.30;;;;;;4957129;29;20504;-71
2022/04/24 08:25:39;;;;;;;11.82;4.32;;;10.70;69.80;;;;;;4957256;29;20047;-71
2022/04/24 08:28:11;;;;;;;14.20;4.75;;;10.80;69.50;;;;;;4955093;29;20052;-71
2022/04/24 08:30:41;;;;;;;9.20;4.38;;;10.90;68.70;;;;;;4957002;29;20047;-71
2022/04/24 08:33:09;;;;;;;11.77;4.75;;;10.90;68.30;;;;;;4957367;29;20047;-71
2022/04/24 08:35:38;;;;;;;11.45;4.78;;;11.00;68.30;;;;;;4940893;29;20039;-74
2022/04/24 08:38:06;;;;;;;11.57;4.38;;;11.00;68.10;;;;;;4940875;29;20197;-72
2022/04/24 08:40:34;;;;;;;13.27;4.03;;;11.10;67.90;;;;;;4957520;29;20043;-72
2022/04/24 08:43:02;;;;;;;12.45;4.72;;;11.20;67.70;;;;;;4957236;29;20059;-71
2022/04/24 08:45:31;;;;;;;12.13;3.83;;;11.20;67.40;;;;;;4957393;29;20053;-72
2022/04/24 08:47:59;;;;;;;8.48;3.75;;;11.30;66.70;;;;;;4957120;29;20055;-72
2022/04/24 08:50:30;;;;;;;9.52;3.88;;;11.30;66.10;;;;;;4922752;29;20040;-72
2022/04/24 08:52:57;;;;;;;8.95;3.60;;;11.30;65.80;;;;;;4953557;29;20051;-73
2022/04/24 08:55:32;;;;;;;8.30;3.75;;;11.40;65.80;;;;;;4955782;28;20051;-71
2022/04/24 08:58:01;;;;;;;12.57;4.15;;;11.60;65.40;;;;;;4956390;29;20062;-72
2022/04/24 09:00:29;;;;;;;11.43;3.42;;;11.60;65.00;;;;;;4939501;29;20071;-71
2022/04/24 09:02:57;;;;;;;13.40;3.70;;;11.80;65.10;;;;;;4939377;29;20054;-73
2022/04/24 09:05:28;;;;;;;10.75;4.00;;;11.80;64.80;;;;;;4957403;29;20051;-71
2022/04/24 09:08:13;;;;;;;10.50;3.25;;;11.90;64.30;;;;;;4940036;29;20075;-72
2022/04/24 09:11:00;;;;;;;13.52;3.33;;;12.00;63.20;;;;;;4953618;29;20039;-71
2022/04/24 09:16:25;;;;;;;9.82;3.05;;;12.00;62.60;;;;;;4928738;29;20074;-70
2022/04/24 09:18:52;;;;;;;12.48;2.97;;;12.10;62.60;;;;;;4953414;29;20408;-71
2022/04/24 09:21:20;;;;;;;13.85;3.38;;;12.20;62.40;;;;;;4927741;29;20520;-71
2022/04/24 09:23:48;;;;;;;8.45;3.08;;;12.30;62.00;;;;;;4945116;28;20058;-71
2022/04/24 09:26:16;;;;;;;9.93;3.08;;;12.30;60.80;;;;;;4948003;29;20051;-71
2022/04/24 09:28:44;;;;;;;7.88;2.95;;;12.30;60.90;;;;;;4948969;28;20047;-72
2022/04/24 09:31:15;;;;;;;11.18;3.30;;;12.30;60.50;;;;;;4939640;29;20048;-72
2022/04/24 09:33:43;;;;;;;9.15;3.10;;;12.40;60.40;;;;;;4920646;29;20055;-71
2022/04/24 09:36:13;;;;;;;8.98;3.10;;;12.60;60.30;;;;;;4920623;29;20054;-71
2022/04/24 09:38:42;;;;;;;13.00;3.28;;;12.70;59.60;;;;;;4920714;29;20493;-71
2022/04/24 09:41:23;;;;;;;9.02;3.05;;;12.80;59.30;;;;;;4940087;29;20047;-72
2022/04/24 09:43:56;;;;;;;7.18;3.40;;;13.00;59.30;;;;;;4924415;29;20059;-71
2022/04/24 09:46:26;;;;;;;8.50;2.90;;;13.20;58.90;;;;;;4955925;29;20055;-71
2022/04/24 09:48:57;;;;;;;5.80;2.47;;;13.50;57.70;;;;;;4956570;29;20047;-73
2022/04/24 09:51:25;;;;;;;7.25;2.78;;;13.60;56.60;;;;;;4940881;29;20082;-72
2022/04/24 09:53:58;;;;;;;9.27;2.95;;;13.80;56.70;;;;;;4956192;29;20492;-71
2022/04/24 09:56:27;;;;;;;7.75;3.15;;;13.90;54.60;;;;;;4956245;29;20050;-72
2022/04/24 09:58:56;;;;;;;4.70;2.70;;;14.00;54.40;;;;;;4955820;29;20409;-71
2022/04/24 10:01:26;;;;;;;8.00;2.75;;;13.90;53.90;;;;;;4956464;29;20412;-71
2022/04/24 10:03:56;;;;;;;9.00;2.90;;;13.80;53.80;;;;;;4956526;29;20051;-72
2022/04/24 10:06:25;;;;;;;9.65;3.10;;;13.70;54.10;;;;;;4956375;29;20051;-72
2022/04/24 10:08:53;;;;;;;7.95;3.05;;;13.60;54.50;;;;;;4956304;29;20051;-72
2022/04/24 10:11:25;;;;;;;6.10;2.78;;;13.40;54.70;;;;;;4924877;29;20046;-71
2022/04/24 10:14:01;;;;;;;10.13;2.50;;;13.50;55.40;;;;;;4950904;29;20404;-71
2022/04/24 10:16:35;;;;;;;8.82;2.50;;;13.60;55.20;;;;;;4937491;29;20066;-72
2022/04/24 10:19:46;;;;;;;6.15;2.50;;;13.80;54.80;;;;;;4931999;29;20132;-72
2022/04/24 10:22:36;;;;;;;8.85;2.40;;;14.00;53.50;;;;;;4877792;29;20053;-78
2022/04/24 10:25:05;;;;;;;11.57;3.22;;;14.20;53.60;;;;;;4862441;29;20064;-70
2022/04/24 10:27:40;;;;;;;7.93;2.55;;;14.50;53.30;;;;;;4877944;29;20076;-70
2022/04/24 10:30:22;;;;;;;7.22;2.20;;;14.90;52.60;;;;;;4877688;29;20060;-71
2022/04/24 10:33:08;;;;;;;6.43;2.28;;;15.30;50.30;;;;;;4877986;29;20059;-71
2022/04/24 10:35:49;;;;;;;4.88;2.00;;;15.50;49.30;;;;;;4876400;29;20468;-71
2022/04/24 10:39:00;;;;;;;6.10;2.15;;;15.60;48.30;;;;;;4867348;29;20060;-70
2022/04/24 10:41:55;;;;;;;9.38;1.90;;;15.50;48.20;;;;;;4864177;29;20056;-76
2022/04/24 10:44:27;;;;;;;6.40;1.77;;;15.50;47.00;;;;;;4876749;29;20082;-76
2022/04/24 10:46:57;;;;;;;9.38;2.03;;;15.60;47.20;;;;;;4840975;29;20181;-71
2022/04/24 10:49:35;;;;;;;9.77;1.92;;;15.80;48.20;;;;;;4873849;29;20075;-71
2022/04/24 10:52:05;;;;;;;3.85;1.70;;;16.30;48.00;;;;;;4885927;29;20055;-71
2022/04/24 10:54:40;;;;;;;5.82;1.83;;;16.90;46.70;;;;;;4955697;29;20043;-70
2022/04/24 10:57:23;;;;;;;7.78;1.98;;;17.20;45.00;;;;;;4931924;29;20395;-71
2022/04/24 10:59:55;;;;;;;6.68;1.73;;;17.30;44.00;;;;;;4952187;29;20493;-71
2022/04/24 11:02:28;;;;;;;8.27;2.05;;;16.90;43.60;;;;;;4951972;29;20374;-72
2022/04/24 11:05:07;;;;;;;8.35;1.60;;;16.40;44.10;;;;;;4940921;29;20058;-71
2022/04/24 11:07:35;;;;;;;9.65;2.22;;;16.10;44.80;;;;;;4953290;29;20044;-71
2022/04/24 11:10:10;;;;;;;4.82;1.40;;;15.90;45.00;;;;;;4950942;29;20066;-72
2022/04/24 11:12:40;;;;;;;5.80;1.88;;;15.70;44.80;;;;;;4935756;29;20100;-70
2022/04/24 11:15:13;;;;;;;3.80;1.45;;;15.60;44.90;;;;;;4954384;28;20069;-70
2022/04/24 11:17:41;;;;;;;5.28;1.20;;;15.60;45.40;;;;;;4937643;29;20058;-70
2022/04/24 11:20:13;;;;;;;5.47;1.30;;;15.70;46.00;;;;;;4937030;29;20047;-70
2022/04/24 11:22:50;;;;;;;4.13;1.35;;;15.70;45.80;;;;;;4954319;28;20043;-71
2022/04/24 11:25:22;;;;;;;6.63;1.60;;;15.90;45.40;;;;;;4951519;28;20074;-71
2022/04/24 11:27:54;;;;;;;5.22;1.17;;;16.20;44.40;;;;;;4942540;28;20047;-71
2022/04/24 11:30:31;;;;;;;6.88;1.40;;;16.30;44.40;;;;;;4953563;29;20043;-70
2022/04/24 11:33:08;;;;;;;8.93;1.83;;;16.50;43.80;;;;;;4950223;29;20052;-70
2022/04/24 11:35:39;;;;;;;6.72;1.20;;;16.60;43.50;;;;;;4945673;29;20080;-71
2022/04/24 11:38:09;;;;;;;4.43;1.35;;;16.80;43.80;;;;;;4952572;29;20500;-71
2022/04/24 11:40:43;;;;;;;5.22;1.30;;;16.90;42.50;;;;;;4926880;29;20052;-70
2022/04/24 11:43:18;;;;;;;3.47;1.42;;;16.70;42.40;;;;;;4939225;29;20055;-70
2022/04/24 11:51:32;;;;;;;3.53;1.20;;;16.90;42.20;;;;;;4936620;29;20051;-70
2022/04/24 11:54:10;;;;;;;2.38;1.20;;;17.30;40.10;;;;;;4951886;29;20070;-70
2022/04/24 11:56:39;;;;;;;5.28;1.42;;;17.50;39.40;;;;;;4954101;29;20381;-70
2022/04/24 11:59:12;;;;;;;2.88;1.30;;;17.80;39.50;;;;;;4941924;29;20512;-71
2022/04/24 12:01:40;;;;;;;3.53;1.27;;;18.00;39.10;;;;;;4934829;29;20389;-71
2022/04/24 12:04:08;;;;;;;4.70;1.40;;;18.20;38.30;;;;;;4934728;29;20051;-71
2022/04/24 12:06:36;;;;;;;4.13;1.58;;;18.30;37.80;;;;;;4937800;29;20046;-72
2022/04/24 12:09:08;;;;;;;4.03;1.38;;;18.40;37.00;;;;;;4953287;29;20066;-71
2022/04/24 12:11:35;;;;;;;7.22;1.58;;;18.30;36.50;;;;;;4935751;29;20054;-71
2022/04/24 12:14:10;;;;;;;4.88;1.30;;;18.30;37.00;;;;;;4951626;29;20051;-71
2022/04/24 12:16:40;;;;;;;6.38;1.88;;;18.40;37.30;;;;;;4951664;29;20062;-71
2022/04/24 12:19:10;;;;;;;3.38;1.15;;;18.60;36.70;;;;;;4949311;29;20102;-71
2022/04/24 12:21:46;;;;;;;3.25;1.20;;;18.70;36.60;;;;;;4936270;29;20425;-70
2022/04/24 12:24:15;;;;;;;4.63;1.30;;;18.90;36.50;;;;;;4949419;29;20047;-71
2022/04/24 12:26:51;;;;;;;4.57;1.40;;;19.30;35.90;;;;;;4936895;29;20050;-71
2022/04/24 12:29:22;;;;;;;4.38;1.40;;;19.40;35.60;;;;;;4953136;29;20051;-71
2022/04/24 12:31:50;;;;;;;6.20;1.33;;;19.10;35.20;;;;;;4953777;29;20389;-71
2022/04/24 12:34:21;;;;;;;4.82;1.55;;;18.70;35.30;;;;;;4936887;29;20043;-70
2022/04/24 12:36:50;;;;;;;10.02;1.70;;;18.80;36.10;;;;;;4946797;29;20405;-71
2022/04/24 12:39:26;;;;;;;6.78;1.70;;;19.30;36.60;;;;;;4917504;29;20052;-71
2022/04/24 12:41:53;;;;;;;4.18;1.27;;;20.10;36.40;;;;;;4947210;29;20051;-71
2022/04/24 12:44:21;;;;;;;4.82;1.70;;;20.80;35.70;;;;;;4949887;29;20055;-71
2022/04/24 12:47:00;;;;;;;3.80;1.45;;;21.50;35.60;;;;;;4943345;29;20054;-71
2022/04/24 12:49:29;;;;;;;3.80;1.17;;;22.20;33.40;;;;;;4921882;29;20047;-71
2022/04/24 12:51:58;;;;;;;4.82;1.45;;;22.20;32.20;;;;;;4950998;29;20039;-71
2022/04/24 12:54:26;;;;;;;4.15;1.52;;;21.50;32.40;;;;;;4953475;29;20066;-71
2022/04/24 12:56:54;;;;;;;4.30;1.27;;;20.80;33.30;;;;;;4937822;29;20040;-71
2022/04/24 12:59:22;;;;;;;4.32;1.30;;;20.10;33.50;;;;;;4933955;29;20043;-71
2022/04/24 13:01:52;;;;;;;5.97;1.65;;;19.60;33.50;;;;;;4950481;28;20054;-71
2022/04/24 13:04:21;;;;;;;5.35;1.27;;;19.60;34.20;;;;;;4932096;29;20393;-71
2022/04/24 13:06:49;;;;;;;4.35;1.48;;;20.10;34.00;;;;;;4955825;28;20051;-71
2022/04/24 13:09:29;;;;;;;4.35;1.60;;;20.70;33.70;;;;;;4954732;29;20059;-71